Airport ID:KCXP
Update Time (UTC):02/03/2021 11:44
Wind Speed (Knots):3
Wind Direction (Magnetic):80
Temperature (°C):-3
Dew Point (°C):-11
Humidity (%):60
Altimeter (inHg):30.09
Density Altitude (Feet):
Visibility:10+
Clouds (Hundreds of feet):CLR
Present Weather:
METAR:METAR KCXP 021140Z AUTO 00000KT 10SM CLR M03/M11 A3009 RMK AO2

The data displayed is for advisory purposes only and is not to be used for flight planning or operations.